Adams Corners, New York
Current Conditions -  °F | °C
As of 11:45 AM on Saturday 25 Oct 2014 (Local Time) from KSWF Reporting Station
Scattered Clouds Scattered Clouds  
Wind Chill: 61°   Ceiling: Unl
Heat Index: 61°   Visibility: 20mi
Dew Point: 46°   Wind: 122mph
Humidity: 59%   Direction: 270°W
Pressure: 29.8"   Gusts: NA
Location:  41.3969°N, 73.8382°W
Report Text: KSWF 251545Z 270106KT 20SM SCT100 16/08 A2980
Loading
Personal Weather Stations






























Interactive Weather Map
Tropical Storm Tracking
New forecast layout! Learn more

10-Day Weather Forecast

Advertisements
Track Severe Weather on mobile